createdAt,value
2022-08-20T00:00:47.982Z,100799.56
2022-08-20T00:03:17.736Z,100799.41
2022-08-20T00:05:51.932Z,100797.78
2022-08-20T00:08:25.261Z,100808.56
2022-08-20T00:10:55.838Z,100804.22
2022-08-20T00:13:26.311Z,100807.44
2022-08-20T00:15:54.188Z,100814.38
2022-08-20T00:18:22.420Z,100816.25
2022-08-20T00:20:52.769Z,100818.59
2022-08-20T00:23:21.688Z,100815.31
2022-08-20T00:25:49.896Z,100813.50
2022-08-20T00:28:19.493Z,100801.13
2022-08-20T00:30:47.800Z,100803.69
2022-08-20T00:33:18.227Z,100794.84
2022-08-20T00:35:48.432Z,100789.84
2022-08-20T00:38:16.675Z,100798.41
2022-08-20T00:40:46.205Z,100801.16
2022-08-20T00:43:32.757Z,100806.28
2022-08-20T00:46:03.112Z,100807.38
2022-08-20T00:48:32.968Z,100804.44
2022-08-20T00:51:05.588Z,100805.75
2022-08-20T00:53:34.556Z,100811.22
2022-08-20T00:56:02.480Z,100809.31
2022-08-20T00:58:31.652Z,100808.31
2022-08-20T01:00:59.824Z,100817.03
2022-08-20T01:03:27.611Z,100824.97
2022-08-20T01:05:55.337Z,100827.53
2022-08-20T01:08:26.686Z,100827.72
2022-08-20T01:11:10.531Z,100825.50
2022-08-20T01:13:40.224Z,100829.03
2022-08-20T01:16:12.739Z,100833.28
2022-08-20T01:18:40.524Z,100845.63
2022-08-20T01:21:08.800Z,100837.59
2022-08-20T01:23:54.348Z,100828.44
2022-08-20T01:26:25.809Z,100817.97
2022-08-20T01:28:56.776Z,100832.63
2022-08-20T01:31:26.410Z,100829.88
2022-08-20T01:33:55.740Z,100835.16
2022-08-20T01:36:31.573Z,100841.72
2022-08-20T01:38:59.912Z,100843.63
2022-08-20T01:41:37.448Z,100844.31
2022-08-20T01:44:05.649Z,100848.50
2022-08-20T01:46:43.771Z,100840.72
2022-08-20T01:49:15.682Z,100835.56
2022-08-20T01:51:51.644Z,100849.31
2022-08-20T01:54:20.440Z,100850.50
2022-08-20T01:56:55.140Z,100845.88
2022-08-20T01:59:24.196Z,100842.16
2022-08-20T02:01:52.368Z,100838.97
2022-08-20T02:04:20.737Z,100839.25
2022-08-20T02:06:56.581Z,100833.47
2022-08-20T02:09:26.479Z,100839.13
2022-08-20T02:11:55.697Z,100838.81
2022-08-20T02:14:23.469Z,100839.59
2022-08-20T02:16:55.307Z,100844.59
2022-08-20T02:19:25.722Z,100851.19
2022-08-20T02:21:56.521Z,100849.44
2022-08-20T02:24:24.248Z,100860.00
2022-08-20T02:26:52.351Z,100845.72
2022-08-20T02:29:21.585Z,100850.53
2022-08-20T02:32:32.770Z,100845.41
2022-08-20T02:34:37.120Z,100846.38
2022-08-20T02:37:06.741Z,100847.19
2022-08-20T02:39:35.140Z,100841.72
2022-08-20T02:42:03.773Z,100841.53
2022-08-20T02:44:32.999Z,100846.09
2022-08-20T02:47:00.893Z,100840.09
2022-08-20T02:49:28.615Z,100843.97
2022-08-20T02:51:56.341Z,100844.22
2022-08-20T02:54:24.365Z,100850.94
2022-08-20T02:56:52.719Z,100849.78
2022-08-20T02:59:20.428Z,100849.78
2022-08-20T03:01:59.974Z,100846.94
2022-08-20T03:04:29.136Z,100848.19
2022-08-20T03:06:57.201Z,100850.78
2022-08-20T03:09:24.930Z,100847.28
2022-08-20T03:11:52.775Z,100845.72
2022-08-20T03:14:20.603Z,100848.94
2022-08-20T03:16:49.776Z,100848.88
2022-08-20T03:19:17.736Z,100850.16
2022-08-20T03:21:45.477Z,100850.63
2022-08-20T03:24:13.296Z,100846.63
2022-08-20T03:26:41.153Z,100846.19
2022-08-20T03:29:09.021Z,100849.44
2022-08-20T03:31:36.765Z,100852.66
2022-08-20T03:34:06.308Z,100860.81
2022-08-20T03:36:34.131Z,100858.22
2022-08-20T03:39:06.158Z,100861.25
2022-08-20T03:41:33.887Z,100853.94
2022-08-20T03:44:01.637Z,100857.16
2022-08-20T03:46:29.798Z,100855.09
2022-08-20T03:49:00.424Z,100859.41
2022-08-20T03:51:31.537Z,100869.00
2022-08-20T03:54:03.079Z,100877.22
2022-08-20T03:56:31.637Z,100873.94
2022-08-20T03:58:59.523Z,100873.34
2022-08-20T04:01:44.544Z,100876.88
2022-08-20T04:04:14.302Z,100876.78
2022-08-20T04:06:43.881Z,100879.34
2022-08-20T04:09:12.184Z,100878.28
2022-08-20T04:11:40.328Z,100869.78
2022-08-20T04:14:08.091Z,100875.56
2022-08-20T04:16:37.666Z,100873.03
2022-08-20T04:19:06.112Z,100873.69
2022-08-20T04:21:34.956Z,100886.06
2022-08-20T04:24:05.955Z,100883.16
2022-08-20T04:26:37.100Z,100881.91
2022-08-20T04:29:04.995Z,100889.31
2022-08-20T04:31:34.104Z,100890.94
2022-08-20T04:34:02.904Z,100892.69
2022-08-20T04:36:30.732Z,100888.03
2022-08-20T04:38:58.412Z,100890.88
2022-08-20T04:41:27.909Z,100888.63
2022-08-20T04:43:56.564Z,100893.94
2022-08-20T04:46:28.410Z,100892.56
2022-08-20T04:48:57.018Z,100895.34
2022-08-20T04:51:25.106Z,100893.94
2022-08-20T04:53:56.113Z,100894.13
2022-08-20T04:56:27.889Z,100904.00
2022-08-20T04:58:58.605Z,100904.81
2022-08-20T05:01:27.040Z,100907.72
2022-08-20T05:03:55.642Z,100909.09
2022-08-20T05:06:25.731Z,100910.59
2022-08-20T05:08:53.564Z,100910.69
2022-08-20T05:11:33.468Z,100917.47
2022-08-20T05:14:08.540Z,100909.97
2022-08-20T05:16:40.665Z,100900.03
2022-08-20T05:19:10.087Z,100908.06
2022-08-20T05:21:38.012Z,100900.81
2022-08-20T05:24:06.437Z,100906.41
2022-08-20T05:26:34.319Z,100895.28
2022-08-20T05:29:04.620Z,100897.78
2022-08-20T05:31:34.972Z,100902.47
2022-08-20T05:34:03.155Z,100909.50
2022-08-20T05:36:30.934Z,100902.81
2022-08-20T05:38:58.909Z,100901.41
2022-08-20T05:41:30.004Z,100903.34
2022-08-20T05:44:00.983Z,100909.34
2022-08-20T05:46:30.967Z,100913.66
2022-08-20T05:49:01.212Z,100906.59
2022-08-20T05:51:30.089Z,100915.00
2022-08-20T05:53:59.703Z,100917.03
2022-08-20T05:56:30.105Z,100911.44
2022-08-20T05:58:58.424Z,100906.31
2022-08-20T06:01:26.194Z,100910.50
2022-08-20T06:04:11.763Z,100915.44
2022-08-20T06:06:45.596Z,100910.84
2022-08-20T06:09:14.645Z,100922.84
2022-08-20T06:11:42.556Z,100918.66
2022-08-20T06:14:10.340Z,100920.63
2022-08-20T06:16:38.375Z,100914.59
2022-08-20T06:19:06.685Z,100916.38
2022-08-20T06:21:40.988Z,100918.41
2022-08-20T06:24:09.383Z,100918.16
2022-08-20T06:26:37.704Z,100927.81
2022-08-20T06:29:06.592Z,100923.88
2022-08-20T06:31:39.688Z,100926.56
2022-08-20T06:34:08.180Z,100924.25
2022-08-20T06:36:36.495Z,100925.94
2022-08-20T06:39:05.660Z,100929.97
2022-08-20T06:41:36.098Z,100929.06
2022-08-20T06:44:05.462Z,100926.19
2022-08-20T06:46:38.615Z,100934.75
2022-08-20T06:49:08.521Z,100935.09
2022-08-20T06:51:37.558Z,100940.78
2022-08-20T06:54:09.189Z,100941.41
2022-08-20T06:56:36.932Z,100944.47
2022-08-20T06:59:04.847Z,100942.75
2022-08-20T07:01:32.804Z,100950.16
2022-08-20T07:04:00.535Z,100954.94
2022-08-20T07:06:28.777Z,100954.00
2022-08-20T07:08:56.883Z,100953.41
2022-08-20T07:11:28.052Z,100951.66
2022-08-20T07:13:57.885Z,100951.94
2022-08-20T07:16:26.020Z,100947.66
2022-08-20T07:18:53.890Z,100951.84
2022-08-20T07:21:21.628Z,100963.25
2022-08-20T07:23:49.776Z,100950.00
2022-08-20T07:26:17.826Z,100961.41
2022-08-20T07:28:47.068Z,100949.72
2022-08-20T07:31:35.030Z,100957.38
2022-08-20T07:34:03.304Z,100964.78
2022-08-20T07:36:31.492Z,100961.53
2022-08-20T07:38:59.325Z,100966.56
2022-08-20T07:41:34.286Z,100967.69
2022-08-20T07:44:03.640Z,100971.97
2022-08-20T07:46:32.189Z,100968.47
2022-08-20T07:49:00.231Z,100966.91
2022-08-20T07:51:28.502Z,100962.03
2022-08-20T07:53:58.106Z,100968.75
2022-08-20T07:56:26.492Z,100971.78
2022-08-20T07:58:58.991Z,100962.22
2022-08-20T08:01:31.498Z,100973.38
2022-08-20T08:04:00.436Z,100986.72
2022-08-20T08:06:31.074Z,100976.47
2022-08-20T08:09:04.449Z,100977.53
2022-08-20T08:11:34.575Z,100968.34
2022-08-20T08:14:02.727Z,100969.75
2022-08-20T08:16:32.322Z,100970.25
2022-08-20T08:19:03.068Z,100972.53
2022-08-20T08:21:32.099Z,100973.94
2022-08-20T08:24:00.001Z,100970.56
2022-08-20T08:26:28.810Z,100976.72
2022-08-20T08:28:57.988Z,100977.84
2022-08-20T08:31:25.780Z,100975.34
2022-08-20T08:33:56.180Z,100978.47
2022-08-20T08:36:26.981Z,100990.25
2022-08-20T08:38:55.764Z,100987.56
2022-08-20T08:41:34.472Z,100979.03
2022-08-20T08:44:08.100Z,100978.16
2022-08-20T08:46:40.436Z,100985.31
2022-08-20T08:49:11.651Z,100979.47
2022-08-20T08:51:42.182Z,100984.88
2022-08-20T08:54:10.787Z,100979.97
2022-08-20T08:56:38.532Z,100993.53
2022-08-20T08:59:08.663Z,100988.09
2022-08-20T09:01:54.054Z,100996.63
2022-08-20T09:04:29.074Z,101000.38
2022-08-20T09:06:57.315Z,101004.84
2022-08-20T09:09:28.049Z,101005.00
2022-08-20T09:11:57.754Z,100997.84
2022-08-20T09:14:26.701Z,101012.09
2022-08-20T09:16:54.477Z,101004.31
2022-08-20T09:19:22.266Z,101002.16
2022-08-20T09:21:51.344Z,100998.13
2022-08-20T09:24:19.268Z,101003.34
2022-08-20T09:26:47.071Z,101017.63
2022-08-20T09:29:15.013Z,101003.16
2022-08-20T09:31:42.882Z,101004.38
2022-08-20T09:34:10.757Z,101008.25
2022-08-20T09:36:38.433Z,101002.81
2022-08-20T09:39:07.700Z,101007.34
2022-08-20T09:41:35.490Z,100999.91
2022-08-20T09:44:03.483Z,101004.50
2022-08-20T09:46:31.175Z,101008.25
2022-08-20T09:48:58.935Z,100999.13
2022-08-20T09:51:26.860Z,100999.19
2022-08-20T09:53:55.343Z,101006.53
2022-08-20T09:56:26.529Z,101008.81
2022-08-20T09:58:57.195Z,101004.22
2022-08-20T10:01:26.727Z,101007.44
2022-08-20T10:03:54.498Z,101012.47
2022-08-20T10:06:22.230Z,101018.25
2022-08-20T10:08:50.290Z,101012.59
2022-08-20T10:11:18.188Z,101013.59
2022-08-20T10:13:47.292Z,101011.16
2022-08-20T10:16:15.042Z,101008.72
2022-08-20T10:18:42.772Z,101014.72
2022-08-20T10:21:11.134Z,101015.66
2022-08-20T10:23:38.876Z,101018.56
2022-08-20T10:26:08.426Z,101027.47
2022-08-20T10:28:36.653Z,101023.09
2022-08-20T10:31:08.505Z,101018.56
2022-08-20T10:33:36.805Z,101016.66
2022-08-20T10:36:07.668Z,101014.81
2022-08-20T10:38:35.416Z,101010.22
2022-08-20T10:41:03.172Z,101012.28
2022-08-20T10:43:30.980Z,101014.88
2022-08-20T10:45:58.716Z,101013.28
2022-08-20T10:48:27.930Z,101013.56
2022-08-20T10:50:55.859Z,101014.72
2022-08-20T10:53:23.569Z,101020.31
2022-08-20T10:55:51.350Z,101015.97
2022-08-20T10:58:19.228Z,101020.97
2022-08-20T11:00:50.928Z,101024.72
2022-08-20T11:03:18.854Z,101031.84
2022-08-20T11:05:48.318Z,101027.00
2022-08-20T11:08:16.208Z,101028.38
2022-08-20T11:11:03.458Z,101027.47
2022-08-20T11:13:31.183Z,101025.25
2022-08-20T11:15:58.905Z,101026.19
2022-08-20T11:18:26.646Z,101028.63
2022-08-20T11:20:56.283Z,101029.28
2022-08-20T11:23:24.017Z,101023.00
2022-08-20T11:25:51.792Z,101035.31
2022-08-20T11:28:31.440Z,101033.50
2022-08-20T11:31:00.784Z,101028.84
2022-08-20T11:33:29.359Z,101034.84
2022-08-20T11:35:58.535Z,101033.50
2022-08-20T11:38:26.597Z,101037.94
2022-08-20T11:40:54.325Z,101027.94
2022-08-20T11:43:22.027Z,101025.66
2022-08-20T11:45:52.270Z,101022.13
2022-08-20T11:48:20.031Z,101024.88
2022-08-20T11:50:48.128Z,101025.38
2022-08-20T11:53:17.299Z,101024.22
2022-08-20T11:55:45.087Z,101026.31
2022-08-20T11:58:13.563Z,101035.69
2022-08-20T12:00:41.787Z,101023.75
2022-08-20T12:03:10.414Z,101028.25
2022-08-20T12:05:40.267Z,101032.00
2022-08-20T12:08:08.345Z,101029.56
2022-08-20T12:10:38.345Z,101029.41
2022-08-20T12:13:06.785Z,101026.97
2022-08-20T12:15:34.726Z,101025.34
2022-08-20T12:18:03.256Z,101021.47
2022-08-20T12:20:31.018Z,101030.53
2022-08-20T12:22:58.835Z,101026.31
2022-08-20T12:25:27.248Z,101029.06
2022-08-20T12:27:56.642Z,101023.59
2022-08-20T12:30:25.430Z,101021.63
2022-08-20T12:32:53.237Z,101033.09
2022-08-20T12:35:21.436Z,101032.97
2022-08-20T12:37:49.283Z,101034.25
2022-08-20T12:40:24.453Z,101036.00
2022-08-20T12:43:04.133Z,101033.75
2022-08-20T12:45:32.746Z,101029.38
2022-08-20T12:48:10.376Z,101032.16
2022-08-20T12:50:39.472Z,101032.47
2022-08-20T12:53:07.384Z,101042.16
2022-08-20T12:55:35.927Z,101040.22
2022-08-20T12:58:08.740Z,101036.31
2022-08-20T13:00:38.902Z,101040.72
2022-08-20T13:03:12.901Z,101050.41
2022-08-20T13:05:41.785Z,101053.94
2022-08-20T13:08:11.796Z,101047.31
2022-08-20T13:10:44.234Z,101048.28
2022-08-20T13:13:13.833Z,101044.41
2022-08-20T13:15:41.887Z,101041.69
2022-08-20T13:18:09.923Z,101041.97
2022-08-20T13:20:37.689Z,101040.03
2022-08-20T13:23:05.996Z,101040.38
2022-08-20T13:25:33.988Z,101045.88
2022-08-20T13:28:04.829Z,101035.69
2022-08-20T13:30:36.629Z,101042.97
2022-08-20T13:33:05.945Z,101035.69
2022-08-20T13:35:33.813Z,101028.25
2022-08-20T13:38:03.882Z,101026.31
2022-08-20T13:40:31.851Z,101024.19
2022-08-20T13:43:04.486Z,101021.63
2022-08-20T13:45:36.147Z,101022.59
2022-08-20T13:48:05.348Z,101019.50
2022-08-20T13:50:36.294Z,101015.47
2022-08-20T13:53:05.512Z,101017.56
2022-08-20T13:55:35.157Z,101019.50
2022-08-20T13:58:07.874Z,101020.63
2022-08-20T14:00:38.433Z,101023.06
2022-08-20T14:03:07.285Z,101020.81
2022-08-20T14:05:35.674Z,101016.09
2022-08-20T14:08:09.139Z,101024.03
2022-08-20T14:10:42.739Z,101016.28
2022-08-20T14:13:15.159Z,101028.75
2022-08-20T14:15:44.902Z,101019.66
2022-08-20T14:18:15.886Z,101029.06
2022-08-20T14:20:45.498Z,101030.03
2022-08-20T14:23:13.500Z,101028.22
2022-08-20T14:25:41.309Z,101029.84
2022-08-20T14:28:13.331Z,101030.81
2022-08-20T14:30:42.400Z,101025.34
2022-08-20T14:33:11.453Z,101027.28
2022-08-20T14:35:40.033Z,101028.25
2022-08-20T14:38:08.668Z,101025.00
2022-08-20T14:40:36.887Z,101027.75
2022-08-20T14:43:04.772Z,101019.81
2022-08-20T14:45:32.608Z,101017.72
2022-08-20T14:48:00.489Z,101020.31
2022-08-20T14:50:33.227Z,101016.72
2022-08-20T14:53:01.902Z,101018.00
2022-08-20T14:55:31.751Z,101026.06
2022-08-20T14:57:59.797Z,101030.91
2022-08-20T15:00:30.710Z,101033.03
2022-08-20T15:02:58.834Z,101021.06
2022-08-20T15:05:27.076Z,101037.41
2022-08-20T15:07:59.417Z,101027.84
2022-08-20T15:10:29.099Z,101035.00
2022-08-20T15:12:57.407Z,101036.28
2022-08-20T15:15:25.914Z,101038.63
2022-08-20T15:17:55.906Z,101037.13
2022-08-20T15:20:26.043Z,101031.97
2022-08-20T15:22:53.964Z,101033.75
2022-08-20T15:25:25.074Z,101033.75
2022-08-20T15:27:56.284Z,101037.94
2022-08-20T15:30:30.250Z,101041.50
2022-08-20T15:32:58.430Z,101047.66
2022-08-20T15:35:28.152Z,101048.94
2022-08-20T15:37:58.074Z,101046.19
2022-08-20T15:40:29.518Z,101056.03
2022-08-20T15:42:57.516Z,101043.41
2022-08-20T15:45:25.955Z,101045.72
2022-08-20T15:47:56.277Z,101047.13
2022-08-20T15:50:50.614Z,101041.44
2022-08-20T15:53:21.460Z,101052.47
2022-08-20T15:55:57.178Z,101054.72
2022-08-20T15:58:28.495Z,101057.69
2022-08-20T16:01:23.731Z,101063.31
2022-08-20T16:04:15.752Z,101072.53
2022-08-20T16:06:44.385Z,101062.53
2022-08-20T16:09:24.756Z,101050.56
2022-08-20T16:11:59.759Z,101057.97
2022-08-20T16:14:29.001Z,101067.34
2022-08-20T16:17:01.630Z,101066.72
2022-08-20T16:19:33.724Z,101064.63
2022-08-20T16:22:01.952Z,101079.47
2022-08-20T16:24:29.892Z,101071.25
2022-08-20T16:27:08.707Z,101076.56
2022-08-20T16:29:52.441Z,101086.28
2022-08-20T16:32:35.558Z,101083.53
2022-08-20T16:35:11.613Z,101081.91
2022-08-20T16:37:43.896Z,101096.13
2022-08-20T16:40:20.559Z,101098.22
2022-08-20T16:42:52.229Z,101093.97
2022-08-20T16:45:22.377Z,101098.22
2022-08-20T16:47:51.134Z,101102.41
2022-08-20T16:50:21.620Z,101103.69
2022-08-20T16:52:49.968Z,101113.28
2022-08-20T16:55:18.499Z,101108.09
2022-08-20T16:57:47.645Z,101101.31
2022-08-20T17:00:29.278Z,101106.50
2022-08-20T17:02:59.944Z,101114.06
2022-08-20T17:05:29.795Z,101112.66
2022-08-20T17:08:03.076Z,101105.47
2022-08-20T17:10:33.893Z,101100.97
2022-08-20T17:13:05.768Z,101106.41
2022-08-20T17:15:35.984Z,101114.84
2022-08-20T17:18:18.857Z,101104.72
2022-08-20T17:20:46.837Z,101097.31
2022-08-20T17:23:18.124Z,101099.75
2022-08-20T17:25:47.314Z,101102.19
2022-08-20T17:28:16.284Z,101102.03
2022-08-20T17:30:47.276Z,101098.59
2022-08-20T17:33:28.749Z,101101.06
2022-08-20T17:35:58.773Z,101104.25
2022-08-20T17:38:32.999Z,101102.88
2022-08-20T17:41:04.087Z,101107.16
2022-08-20T17:43:33.658Z,101100.00
2022-08-20T17:46:05.197Z,101101.69
2022-08-20T17:48:42.837Z,101101.22
2022-08-20T17:51:16.175Z,101111.19
2022-08-20T17:53:45.009Z,101105.84
2022-08-20T17:56:17.327Z,101111.13
2022-08-20T17:58:54.997Z,101123.53
2022-08-20T18:01:25.768Z,101117.56
2022-08-20T18:03:54.135Z,101131.25
2022-08-20T18:06:30.650Z,101125.69
2022-08-20T18:09:04.693Z,101124.34
2022-08-20T18:11:34.966Z,101126.69
2022-08-20T18:14:19.037Z,101133.19
2022-08-20T18:16:58.564Z,101134.66
2022-08-20T18:19:38.829Z,101140.81
2022-08-20T18:22:11.213Z,101149.03
2022-08-20T18:24:44.898Z,101148.16
2022-08-20T18:27:15.797Z,101145.59
2022-08-20T18:29:46.590Z,101150.91
2022-08-20T18:32:27.615Z,101150.38
2022-08-20T18:34:55.480Z,101149.94
2022-08-20T18:37:25.945Z,101146.91
2022-08-20T18:39:53.961Z,101152.41
2022-08-20T18:42:27.183Z,101158.91
2022-08-20T18:44:55.848Z,101157.56
2022-08-20T18:47:29.758Z,101166.25
2022-08-20T18:50:06.242Z,101159.91
2022-08-20T18:52:46.229Z,101168.56
2022-08-20T18:55:28.569Z,101165.34
2022-08-20T18:58:00.256Z,101166.28
2022-08-20T19:00:32.079Z,101168.28
2022-08-20T19:03:11.056Z,101175.41
2022-08-20T19:05:43.935Z,101176.97
2022-08-20T19:08:15.612Z,101175.34
2022-08-20T19:10:48.633Z,101179.06
2022-08-20T19:13:46.053Z,101177.53
2022-08-20T19:16:17.635Z,101176.25
2022-08-20T19:18:50.446Z,101174.88
2022-08-20T19:21:22.985Z,101175.34
2022-08-20T19:23:56.996Z,101172.72
2022-08-20T19:26:26.208Z,101184.56
2022-08-20T19:28:56.731Z,101186.06
2022-08-20T19:31:26.032Z,101188.00
2022-08-20T19:34:04.095Z,101186.63
2022-08-20T19:36:54.675Z,101187.59
2022-08-20T19:39:23.936Z,101187.78
2022-08-20T19:41:57.776Z,101191.28
2022-08-20T19:44:30.598Z,101193.25
2022-08-20T19:46:59.474Z,101189.38
2022-08-20T19:49:33.781Z,101187.16
2022-08-20T19:52:10.880Z,101191.66
2022-08-20T19:54:48.477Z,101187.22
2022-08-20T19:57:17.883Z,101183.25
2022-08-20T19:59:54.488Z,101184.34
2022-08-20T20:02:24.090Z,101184.31
2022-08-20T20:04:55.694Z,101186.44
2022-08-20T20:07:28.889Z,101186.31
2022-08-20T20:09:58.328Z,101179.72
2022-08-20T20:12:26.457Z,101184.75
2022-08-20T20:14:55.165Z,101183.25
2022-08-20T20:17:25.789Z,101188.47
2022-08-20T20:19:59.149Z,101194.72
2022-08-20T20:22:29.307Z,101189.41
2022-08-20T20:25:05.945Z,101195.84
2022-08-20T20:27:36.335Z,101190.00
2022-08-20T20:30:07.724Z,101189.63
2022-08-20T20:32:35.695Z,101196.84
2022-08-20T20:35:06.755Z,101187.06
2022-08-20T20:37:50.278Z,101195.00
2022-08-20T20:40:25.458Z,101189.28
2022-08-20T20:43:03.071Z,101194.50
2022-08-20T20:45:34.715Z,101195.28
2022-08-20T20:48:12.525Z,101198.59
2022-08-20T20:50:42.213Z,101195.66
2022-08-20T20:53:10.115Z,101193.13
2022-08-20T20:55:39.769Z,101196.69
2022-08-20T20:58:07.913Z,101199.13
2022-08-20T21:00:35.988Z,101192.50
2022-08-20T21:03:04.225Z,101201.38
2022-08-20T21:05:33.361Z,101196.09
2022-08-20T21:08:05.244Z,101203.41
2022-08-20T21:10:37.400Z,101203.09
2022-08-20T21:13:05.375Z,101206.69
2022-08-20T21:15:33.932Z,101204.44
2022-08-20T21:18:03.513Z,101204.44
2022-08-20T21:20:31.732Z,101208.63
2022-08-20T21:22:59.741Z,101199.72
2022-08-20T21:25:30.626Z,101200.84
2022-08-20T21:27:58.401Z,101196.47
2022-08-20T21:30:26.923Z,101195.66
2022-08-20T21:32:55.628Z,101201.28
2022-08-20T21:35:23.586Z,101190.91
2022-08-20T21:37:51.367Z,101198.19
2022-08-20T21:40:22.113Z,101203.69
2022-08-20T21:42:51.511Z,101198.84
2022-08-20T21:45:19.770Z,101200.56
2022-08-20T21:47:48.926Z,101196.94
2022-08-20T21:50:18.606Z,101203.63
2022-08-20T21:52:59.332Z,101208.91
2022-08-20T21:55:36.170Z,101207.84
2022-08-20T21:58:11.285Z,101203.63
2022-08-20T22:00:53.584Z,101201.78
2022-08-20T22:03:22.643Z,101202.13
2022-08-20T22:05:51.557Z,101197.94
2022-08-20T22:08:19.624Z,101205.16
2022-08-20T22:10:47.580Z,101196.91
2022-08-20T22:13:17.163Z,101198.16
2022-08-20T22:15:44.885Z,101187.91
2022-08-20T22:18:12.558Z,101192.97
2022-08-20T22:20:40.861Z,101190.22
2022-08-20T22:23:08.634Z,101184.66
2022-08-20T22:25:36.940Z,101185.31
2022-08-20T22:28:05.184Z,101176.38
2022-08-20T22:30:34.291Z,101176.19
2022-08-20T22:33:04.558Z,101176.59
2022-08-20T22:35:32.706Z,101184.59
2022-08-20T22:38:00.519Z,101176.38
2022-08-20T22:40:30.516Z,101170.09
2022-08-20T22:42:58.443Z,101174.34
2022-08-20T22:45:26.376Z,101177.88
2022-08-20T22:47:55.501Z,101181.84
2022-08-20T22:50:24.939Z,101180.53
2022-08-20T22:52:53.252Z,101180.66
2022-08-20T22:55:21.465Z,101180.22
2022-08-20T22:57:49.468Z,101174.06
2022-08-20T23:00:19.697Z,101179.53
2022-08-20T23:03:00.027Z,101175.88
2022-08-20T23:05:29.632Z,101178.31
2022-08-20T23:07:58.776Z,101174.66
2022-08-20T23:10:27.854Z,101176.72
2022-08-20T23:12:56.943Z,101172.22
2022-08-20T23:15:24.960Z,101160.91
2022-08-20T23:17:53.586Z,101153.38
2022-08-20T23:20:22.684Z,101155.53
2022-08-20T23:22:50.437Z,101155.03
2022-08-20T23:25:22.718Z,101154.22
2022-08-20T23:27:52.572Z,101149.19
2022-08-20T23:30:21.201Z,101149.94
2022-08-20T23:32:49.164Z,101142.50
2022-08-20T23:35:16.969Z,101144.13
2022-08-20T23:37:48.662Z,101141.41
2022-08-20T23:40:17.388Z,101146.88
2022-08-20T23:42:55.308Z,101150.44
2022-08-20T23:45:23.469Z,101143.72
2022-08-20T23:47:51.365Z,101161.28
2022-08-20T23:50:24.318Z,101150.81
2022-08-20T23:52:53.539Z,101149.69
2022-08-20T23:55:22.625Z,101147.59
2022-08-20T23:57:50.781Z,101148.38
